sensor_id;sensor_type;location;lat;lon;timestamp;P1;durP1;ratioP1;P2;durP2;ratioP2
81273;SDS011;70753;47.908;11.274;2023-09-07T00:01:27;5.65;;;2.80;;
81273;SDS011;70753;47.908;11.274;2023-09-07T00:03:53;5.20;;;2.65;;
81273;SDS011;70753;47.908;11.274;2023-09-07T00:06:20;5.68;;;3.13;;
81273;SDS011;70753;47.908;11.274;2023-09-07T00:08:45;6.38;;;3.20;;
81273;SDS011;70753;47.908;11.274;2023-09-07T00:11:11;5.38;;;3.15;;
81273;SDS011;70753;47.908;11.274;2023-09-07T00:13:36;4.43;;;2.83;;
81273;SDS011;70753;47.908;11.274;2023-09-07T00:16:03;7.97;;;3.65;;
81273;SDS011;70753;47.908;11.274;2023-09-07T00:18:29;5.20;;;3.20;;
81273;SDS011;70753;47.908;11.274;2023-09-07T00:20:55;7.47;;;3.20;;
81273;SDS011;70753;47.908;11.274;2023-09-07T00:23:22;6.55;;;3.17;;
81273;SDS011;70753;47.908;11.274;2023-09-07T00:25:48;7.22;;;3.03;;
81273;SDS011;70753;47.908;11.274;2023-09-07T00:28:13;8.13;;;3.30;;
81273;SDS011;70753;47.908;11.274;2023-09-07T00:30:39;6.85;;;3.22;;
81273;SDS011;70753;47.908;11.274;2023-09-07T00:33:04;6.10;;;3.17;;
81273;SDS011;70753;47.908;11.274;2023-09-07T00:35:30;5.07;;;3.10;;
81273;SDS011;70753;47.908;11.274;2023-09-07T00:37:55;7.70;;;3.47;;
81273;SDS011;70753;47.908;11.274;2023-09-07T00:40:22;4.80;;;2.60;;
81273;SDS011;70753;47.908;11.274;2023-09-07T00:42:48;5.47;;;3.10;;
81273;SDS011;70753;47.908;11.274;2023-09-07T00:45:13;6.40;;;2.92;;
81273;SDS011;70753;47.908;11.274;2023-09-07T00:47:39;8.07;;;3.38;;
81273;SDS011;70753;47.908;11.274;2023-09-07T00:50:05;6.65;;;2.90;;
81273;SDS011;70753;47.908;11.274;2023-09-07T00:52:31;5.70;;;3.10;;
81273;SDS011;70753;47.908;11.274;2023-09-07T00:54:57;5.75;;;2.75;;
81273;SDS011;70753;47.908;11.274;2023-09-07T00:57:24;5.35;;;3.13;;
81273;SDS011;70753;47.908;11.274;2023-09-07T00:59:50;7.40;;;3.30;;
81273;SDS011;70753;47.908;11.274;2023-09-07T01:02:15;5.88;;;3.25;;
81273;SDS011;70753;47.908;11.274;2023-09-07T01:04:41;4.78;;;2.75;;
81273;SDS011;70753;47.908;11.274;2023-09-07T01:07:07;5.05;;;3.22;;
81273;SDS011;70753;47.908;11.274;2023-09-07T01:09:38;5.88;;;3.28;;
81273;SDS011;70753;47.908;11.274;2023-09-07T01:12:07;5.75;;;3.10;;
81273;SDS011;70753;47.908;11.274;2023-09-07T01:14:33;5.22;;;3.28;;
81273;SDS011;70753;47.908;11.274;2023-09-07T01:17:13;5.70;;;2.95;;
81273;SDS011;70753;47.908;11.274;2023-09-07T01:19:39;6.30;;;3.25;;
81273;SDS011;70753;47.908;11.274;2023-09-07T01:22:06;5.20;;;3.10;;
81273;SDS011;70753;47.908;11.274;2023-09-07T01:24:33;6.88;;;3.08;;
81273;SDS011;70753;47.908;11.274;2023-09-07T01:26:59;7.07;;;3.15;;
81273;SDS011;70753;47.908;11.274;2023-09-07T01:29:26;5.72;;;3.13;;
81273;SDS011;70753;47.908;11.274;2023-09-07T01:31:51;5.72;;;3.10;;
81273;SDS011;70753;47.908;11.274;2023-09-07T01:34:17;5.03;;;3.42;;
81273;SDS011;70753;47.908;11.274;2023-09-07T01:36:43;6.28;;;3.30;;
81273;SDS011;70753;47.908;11.274;2023-09-07T01:39:10;6.95;;;3.70;;
81273;SDS011;70753;47.908;11.274;2023-09-07T01:41:36;5.85;;;3.25;;
81273;SDS011;70753;47.908;11.274;2023-09-07T01:44:02;4.95;;;3.15;;
81273;SDS011;70753;47.908;11.274;2023-09-07T01:46:28;6.05;;;3.20;;
81273;SDS011;70753;47.908;11.274;2023-09-07T01:48:54;6.57;;;3.40;;
81273;SDS011;70753;47.908;11.274;2023-09-07T01:51:19;8.32;;;3.35;;
81273;SDS011;70753;47.908;11.274;2023-09-07T01:53:46;8.93;;;3.72;;
81273;SDS011;70753;47.908;11.274;2023-09-07T01:56:13;7.78;;;3.60;;
81273;SDS011;70753;47.908;11.274;2023-09-07T01:58:39;6.85;;;3.67;;
81273;SDS011;70753;47.908;11.274;2023-09-07T02:01:04;6.50;;;3.50;;
81273;SDS011;70753;47.908;11.274;2023-09-07T02:03:30;6.47;;;3.58;;
81273;SDS011;70753;47.908;11.274;2023-09-07T02:05:55;5.85;;;3.58;;
81273;SDS011;70753;47.908;11.274;2023-09-07T02:08:20;5.72;;;3.50;;
81273;SDS011;70753;47.908;11.274;2023-09-07T02:10:47;5.10;;;3.30;;
81273;SDS011;70753;47.908;11.274;2023-09-07T02:13:13;5.50;;;3.22;;
81273;SDS011;70753;47.908;11.274;2023-09-07T02:15:39;6.47;;;3.45;;
81273;SDS011;70753;47.908;11.274;2023-09-07T02:18:04;5.15;;;3.30;;
81273;SDS011;70753;47.908;11.274;2023-09-07T02:20:30;6.63;;;3.50;;
81273;SDS011;70753;47.908;11.274;2023-09-07T02:22:55;5.82;;;3.50;;
81273;SDS011;70753;47.908;11.274;2023-09-07T02:25:21;5.93;;;3.20;;
81273;SDS011;70753;47.908;11.274;2023-09-07T02:27:46;9.43;;;4.88;;
81273;SDS011;70753;47.908;11.274;2023-09-07T02:30:13;31.75;;;14.30;;
81273;SDS011;70753;47.908;11.274;2023-09-07T02:32:40;36.70;;;15.55;;
81273;SDS011;70753;47.908;11.274;2023-09-07T02:35:07;60.25;;;25.70;;
81273;SDS011;70753;47.908;11.274;2023-09-07T02:37:33;71.80;;;30.75;;
81273;SDS011;70753;47.908;11.274;2023-09-07T02:39:59;53.50;;;26.42;;
81273;SDS011;70753;47.908;11.274;2023-09-07T02:42:24;44.05;;;23.35;;
81273;SDS011;70753;47.908;11.274;2023-09-07T02:44:50;29.70;;;17.20;;
81273;SDS011;70753;47.908;11.274;2023-09-07T02:47:17;16.35;;;8.75;;
81273;SDS011;70753;47.908;11.274;2023-09-07T02:49:42;13.55;;;8.82;;
81273;SDS011;70753;47.908;11.274;2023-09-07T02:52:08;12.60;;;7.88;;
81273;SDS011;70753;47.908;11.274;2023-09-07T02:54:34;7.63;;;4.60;;
81273;SDS011;70753;47.908;11.274;2023-09-07T02:56:59;6.45;;;3.90;;
81273;SDS011;70753;47.908;11.274;2023-09-07T02:59:25;7.63;;;4.15;;
81273;SDS011;70753;47.908;11.274;2023-09-07T03:01:51;6.30;;;3.85;;
81273;SDS011;70753;47.908;11.274;2023-09-07T03:04:17;6.05;;;3.92;;
81273;SDS011;70753;47.908;11.274;2023-09-07T03:06:43;5.80;;;3.78;;
81273;SDS011;70753;47.908;11.274;2023-09-07T03:09:08;7.05;;;4.10;;
81273;SDS011;70753;47.908;11.274;2023-09-07T03:11:34;5.90;;;3.70;;
81273;SDS011;70753;47.908;11.274;2023-09-07T03:14:00;7.70;;;3.83;;
81273;SDS011;70753;47.908;11.274;2023-09-07T03:16:25;7.25;;;3.55;;
81273;SDS011;70753;47.908;11.274;2023-09-07T03:18:51;6.78;;;3.92;;
81273;SDS011;70753;47.908;11.274;2023-09-07T03:21:18;6.30;;;3.78;;
81273;SDS011;70753;47.908;11.274;2023-09-07T03:23:43;6.97;;;4.45;;
81273;SDS011;70753;47.908;11.274;2023-09-07T03:26:09;6.07;;;3.70;;
81273;SDS011;70753;47.908;11.274;2023-09-07T03:28:34;6.55;;;3.50;;
81273;SDS011;70753;47.908;11.274;2023-09-07T03:31:00;6.93;;;3.72;;
81273;SDS011;70753;47.908;11.274;2023-09-07T03:33:25;7.05;;;3.95;;
81273;SDS011;70753;47.908;11.274;2023-09-07T03:35:51;9.63;;;4.05;;
81273;SDS011;70753;47.908;11.274;2023-09-07T03:38:18;6.88;;;4.45;;
81273;SDS011;70753;47.908;11.274;2023-09-07T03:40:43;6.93;;;3.97;;
81273;SDS011;70753;47.908;11.274;2023-09-07T03:43:09;6.18;;;3.75;;
81273;SDS011;70753;47.908;11.274;2023-09-07T03:45:35;6.55;;;3.92;;
81273;SDS011;70753;47.908;11.274;2023-09-07T03:48:00;8.85;;;4.85;;
81273;SDS011;70753;47.908;11.274;2023-09-07T03:50:26;9.10;;;4.22;;
81273;SDS011;70753;47.908;11.274;2023-09-07T03:52:51;9.18;;;4.93;;
81273;SDS011;70753;47.908;11.274;2023-09-07T03:55:18;8.35;;;5.32;;
81273;SDS011;70753;47.908;11.274;2023-09-07T03:57:43;8.93;;;5.10;;
81273;SDS011;70753;47.908;11.274;2023-09-07T04:00:10;7.53;;;4.57;;
81273;SDS011;70753;47.908;11.274;2023-09-07T04:02:37;8.75;;;5.30;;
81273;SDS011;70753;47.908;11.274;2023-09-07T04:05:03;7.63;;;4.40;;
81273;SDS011;70753;47.908;11.274;2023-09-07T04:07:29;10.93;;;4.53;;
81273;SDS011;70753;47.908;11.274;2023-09-07T04:09:54;7.43;;;4.47;;
81273;SDS011;70753;47.908;11.274;2023-09-07T04:12:21;7.85;;;5.03;;
81273;SDS011;70753;47.908;11.274;2023-09-07T04:14:46;7.05;;;4.65;;
81273;SDS011;70753;47.908;11.274;2023-09-07T04:17:12;8.27;;;3.95;;
81273;SDS011;70753;47.908;11.274;2023-09-07T04:19:37;12.35;;;5.03;;
81273;SDS011;70753;47.908;11.274;2023-09-07T04:22:03;8.90;;;4.82;;
81273;SDS011;70753;47.908;11.274;2023-09-07T04:24:28;6.68;;;4.45;;
81273;SDS011;70753;47.908;11.274;2023-09-07T04:26:57;6.65;;;4.35;;
81273;SDS011;70753;47.908;11.274;2023-09-07T04:29:25;6.68;;;3.80;;
81273;SDS011;70753;47.908;11.274;2023-09-07T04:31:50;7.60;;;4.70;;
81273;SDS011;70753;47.908;11.274;2023-09-07T04:34:16;9.20;;;4.85;;
81273;SDS011;70753;47.908;11.274;2023-09-07T04:36:41;9.10;;;5.10;;
81273;SDS011;70753;47.908;11.274;2023-09-07T04:39:06;7.57;;;4.20;;
81273;SDS011;70753;47.908;11.274;2023-09-07T04:41:32;7.80;;;4.07;;
81273;SDS011;70753;47.908;11.274;2023-09-07T04:43:57;7.85;;;4.88;;
81273;SDS011;70753;47.908;11.274;2023-09-07T04:46:24;6.88;;;4.63;;
81273;SDS011;70753;47.908;11.274;2023-09-07T04:48:49;7.18;;;4.45;;
81273;SDS011;70753;47.908;11.274;2023-09-07T04:51:15;6.55;;;4.30;;
81273;SDS011;70753;47.908;11.274;2023-09-07T04:53:40;10.75;;;4.70;;
81273;SDS011;70753;47.908;11.274;2023-09-07T04:56:06;9.20;;;4.50;;
81273;SDS011;70753;47.908;11.274;2023-09-07T04:58:32;16.63;;;5.70;;
81273;SDS011;70753;47.908;11.274;2023-09-07T05:01:01;8.85;;;4.68;;
81273;SDS011;70753;47.908;11.274;2023-09-07T05:03:28;8.82;;;4.50;;
81273;SDS011;70753;47.908;11.274;2023-09-07T05:05:54;11.10;;;5.20;;
81273;SDS011;70753;47.908;11.274;2023-09-07T05:08:20;7.55;;;4.78;;
81273;SDS011;70753;47.908;11.274;2023-09-07T05:10:46;9.63;;;5.18;;
81273;SDS011;70753;47.908;11.274;2023-09-07T05:13:12;9.23;;;4.68;;
81273;SDS011;70753;47.908;11.274;2023-09-07T05:15:37;8.77;;;4.53;;
81273;SDS011;70753;47.908;11.274;2023-09-07T05:18:12;6.93;;;4.10;;
81273;SDS011;70753;47.908;11.274;2023-09-07T05:20:38;9.55;;;4.50;;
81273;SDS011;70753;47.908;11.274;2023-09-07T05:23:04;7.32;;;4.00;;
81273;SDS011;70753;47.908;11.274;2023-09-07T05:25:29;7.72;;;4.43;;
81273;SDS011;70753;47.908;11.274;2023-09-07T05:27:56;13.13;;;4.82;;
81273;SDS011;70753;47.908;11.274;2023-09-07T05:30:21;7.95;;;4.30;;
81273;SDS011;70753;47.908;11.274;2023-09-07T05:32:47;8.98;;;4.82;;
81273;SDS011;70753;47.908;11.274;2023-09-07T05:35:12;8.10;;;4.82;;
81273;SDS011;70753;47.908;11.274;2023-09-07T05:37:40;8.43;;;4.35;;
81273;SDS011;70753;47.908;11.274;2023-09-07T05:40:06;8.43;;;4.70;;
81273;SDS011;70753;47.908;11.274;2023-09-07T05:42:32;9.90;;;5.18;;
81273;SDS011;70753;47.908;11.274;2023-09-07T05:44:57;11.38;;;6.70;;
81273;SDS011;70753;47.908;11.274;2023-09-07T05:47:23;9.95;;;5.18;;
81273;SDS011;70753;47.908;11.274;2023-09-07T05:49:48;9.25;;;5.85;;
81273;SDS011;70753;47.908;11.274;2023-09-07T05:52:15;10.35;;;6.45;;
81273;SDS011;70753;47.908;11.274;2023-09-07T05:54:42;12.63;;;7.00;;
81273;SDS011;70753;47.908;11.274;2023-09-07T05:57:07;11.77;;;7.03;;
81273;SDS011;70753;47.908;11.274;2023-09-07T05:59:33;18.20;;;7.63;;
81273;SDS011;70753;47.908;11.274;2023-09-07T06:02:03;10.73;;;6.82;;
81273;SDS011;70753;47.908;11.274;2023-09-07T06:04:29;10.07;;;6.57;;
81273;SDS011;70753;47.908;11.274;2023-09-07T06:06:54;11.43;;;7.32;;
81273;SDS011;70753;47.908;11.274;2023-09-07T06:09:20;13.43;;;8.07;;
81273;SDS011;70753;47.908;11.274;2023-09-07T06:11:46;12.25;;;7.75;;
81273;SDS011;70753;47.908;11.274;2023-09-07T06:14:12;13.15;;;7.55;;
81273;SDS011;70753;47.908;11.274;2023-09-07T06:16:37;11.10;;;7.07;;
81273;SDS011;70753;47.908;11.274;2023-09-07T06:19:03;10.85;;;7.47;;
81273;SDS011;70753;47.908;11.274;2023-09-07T06:21:28;12.10;;;7.53;;
81273;SDS011;70753;47.908;11.274;2023-09-07T06:23:54;15.65;;;8.20;;
81273;SDS011;70753;47.908;11.274;2023-09-07T06:26:20;12.68;;;7.53;;
81273;SDS011;70753;47.908;11.274;2023-09-07T06:28:47;15.55;;;8.75;;
81273;SDS011;70753;47.908;11.274;2023-09-07T06:31:12;15.75;;;7.70;;
81273;SDS011;70753;47.908;11.274;2023-09-07T06:33:37;13.70;;;8.80;;
81273;SDS011;70753;47.908;11.274;2023-09-07T06:36:03;14.55;;;8.32;;
81273;SDS011;70753;47.908;11.274;2023-09-07T06:38:29;12.45;;;8.02;;
81273;SDS011;70753;47.908;11.274;2023-09-07T06:40:54;12.07;;;7.75;;
81273;SDS011;70753;47.908;11.274;2023-09-07T06:43:20;11.95;;;7.75;;
81273;SDS011;70753;47.908;11.274;2023-09-07T06:45:47;12.15;;;7.70;;
81273;SDS011;70753;47.908;11.274;2023-09-07T06:48:13;11.05;;;7.88;;
81273;SDS011;70753;47.908;11.274;2023-09-07T06:50:39;11.70;;;6.97;;
81273;SDS011;70753;47.908;11.274;2023-09-07T06:53:04;13.10;;;8.07;;
81273;SDS011;70753;47.908;11.274;2023-09-07T06:55:30;16.92;;;7.60;;
81273;SDS011;70753;47.908;11.274;2023-09-07T06:57:56;10.93;;;7.25;;
81273;SDS011;70753;47.908;11.274;2023-09-07T07:00:21;10.80;;;6.43;;
81273;SDS011;70753;47.908;11.274;2023-09-07T07:02:48;8.90;;;6.30;;
81273;SDS011;70753;47.908;11.274;2023-09-07T07:05:17;9.63;;;6.53;;
81273;SDS011;70753;47.908;11.274;2023-09-07T07:07:42;9.93;;;5.78;;
81273;SDS011;70753;47.908;11.274;2023-09-07T07:10:07;10.00;;;5.78;;
81273;SDS011;70753;47.908;11.274;2023-09-07T07:12:33;8.25;;;5.70;;
81273;SDS011;70753;47.908;11.274;2023-09-07T07:14:58;9.70;;;6.18;;
81273;SDS011;70753;47.908;11.274;2023-09-07T07:17:24;12.57;;;6.15;;
81273;SDS011;70753;47.908;11.274;2023-09-07T07:19:50;8.50;;;6.25;;
81273;SDS011;70753;47.908;11.274;2023-09-07T07:22:16;8.38;;;5.60;;
81273;SDS011;70753;47.908;11.274;2023-09-07T07:24:42;11.05;;;7.07;;
81273;SDS011;70753;47.908;11.274;2023-09-07T07:27:08;8.63;;;5.55;;
81273;SDS011;70753;47.908;11.274;2023-09-07T07:29:34;7.85;;;5.75;;
81273;SDS011;70753;47.908;11.274;2023-09-07T07:32:00;9.77;;;6.80;;
81273;SDS011;70753;47.908;11.274;2023-09-07T07:34:25;10.18;;;6.20;;
81273;SDS011;70753;47.908;11.274;2023-09-07T07:36:52;10.25;;;6.10;;
81273;SDS011;70753;47.908;11.274;2023-09-07T07:39:18;8.13;;;5.93;;
81273;SDS011;70753;47.908;11.274;2023-09-07T07:41:43;8.80;;;6.03;;
81273;SDS011;70753;47.908;11.274;2023-09-07T07:44:08;8.27;;;5.95;;
81273;SDS011;70753;47.908;11.274;2023-09-07T07:46:34;9.10;;;5.20;;
81273;SDS011;70753;47.908;11.274;2023-09-07T07:48:59;8.43;;;5.88;;
81273;SDS011;70753;47.908;11.274;2023-09-07T07:51:25;9.23;;;5.32;;
81273;SDS011;70753;47.908;11.274;2023-09-07T07:53:52;8.55;;;5.30;;
81273;SDS011;70753;47.908;11.274;2023-09-07T07:56:18;8.55;;;5.60;;
81273;SDS011;70753;47.908;11.274;2023-09-07T07:58:44;8.45;;;5.40;;
81273;SDS011;70753;47.908;11.274;2023-09-07T08:01:13;9.10;;;5.28;;
81273;SDS011;70753;47.908;11.274;2023-09-07T08:03:40;8.68;;;5.15;;
81273;SDS011;70753;47.908;11.274;2023-09-07T08:06:05;9.45;;;5.57;;
81273;SDS011;70753;47.908;11.274;2023-09-07T08:08:31;11.32;;;5.80;;
81273;SDS011;70753;47.908;11.274;2023-09-07T08:10:58;8.77;;;5.57;;
81273;SDS011;70753;47.908;11.274;2023-09-07T08:13:23;10.57;;;5.53;;
81273;SDS011;70753;47.908;11.274;2023-09-07T08:15:49;8.10;;;4.75;;
81273;SDS011;70753;47.908;11.274;2023-09-07T08:18:14;7.45;;;4.95;;
81273;SDS011;70753;47.908;11.274;2023-09-07T08:20:40;7.53;;;4.97;;
81273;SDS011;70753;47.908;11.274;2023-09-07T08:23:05;8.02;;;4.82;;
81273;SDS011;70753;47.908;11.274;2023-09-07T08:25:31;9.13;;;5.13;;
81273;SDS011;70753;47.908;11.274;2023-09-07T08:27:58;9.40;;;5.10;;
81273;SDS011;70753;47.908;11.274;2023-09-07T08:30:23;7.43;;;4.43;;
81273;SDS011;70753;47.908;11.274;2023-09-07T08:32:48;9.68;;;4.78;;
81273;SDS011;70753;47.908;11.274;2023-09-07T08:35:14;7.50;;;4.97;;
81273;SDS011;70753;47.908;11.274;2023-09-07T08:37:39;7.38;;;4.35;;
81273;SDS011;70753;47.908;11.274;2023-09-07T08:40:05;7.90;;;4.40;;
81273;SDS011;70753;47.908;11.274;2023-09-07T08:42:31;7.38;;;4.32;;
81273;SDS011;70753;47.908;11.274;2023-09-07T08:45:00;6.45;;;4.35;;
81273;SDS011;70753;47.908;11.274;2023-09-07T08:47:27;6.95;;;4.10;;
81273;SDS011;70753;47.908;11.274;2023-09-07T08:49:53;7.47;;;4.40;;
81273;SDS011;70753;47.908;11.274;2023-09-07T08:52:20;7.40;;;4.45;;
81273;SDS011;70753;47.908;11.274;2023-09-07T08:54:45;6.68;;;4.43;;
81273;SDS011;70753;47.908;11.274;2023-09-07T08:57:12;8.07;;;4.05;;
81273;SDS011;70753;47.908;11.274;2023-09-07T08:59:39;6.88;;;4.63;;
81273;SDS011;70753;47.908;11.274;2023-09-07T09:02:08;8.00;;;4.28;;
81273;SDS011;70753;47.908;11.274;2023-09-07T09:04:34;7.05;;;4.30;;
81273;SDS011;70753;47.908;11.274;2023-09-07T09:07:00;8.23;;;5.15;;
81273;SDS011;70753;47.908;11.274;2023-09-07T09:09:26;14.30;;;4.75;;
81273;SDS011;70753;47.908;11.274;2023-09-07T09:11:51;7.22;;;4.70;;
81273;SDS011;70753;47.908;11.274;2023-09-07T09:14:17;7.32;;;4.18;;
81273;SDS011;70753;47.908;11.274;2023-09-07T09:16:47;6.30;;;4.25;;
81273;SDS011;70753;47.908;11.274;2023-09-07T09:19:15;6.93;;;4.20;;
81273;SDS011;70753;47.908;11.274;2023-09-07T09:21:40;6.57;;;4.30;;
81273;SDS011;70753;47.908;11.274;2023-09-07T09:24:09;7.82;;;4.55;;
81273;SDS011;70753;47.908;11.274;2023-09-07T09:29:01;6.47;;;4.00;;
81273;SDS011;70753;47.908;11.274;2023-09-07T09:31:27;6.55;;;4.07;;
81273;SDS011;70753;47.908;11.274;2023-09-07T09:33:52;8.30;;;4.75;;
81273;SDS011;70753;47.908;11.274;2023-09-07T09:36:19;7.97;;;4.35;;
81273;SDS011;70753;47.908;11.274;2023-09-07T09:38:47;9.43;;;4.40;;
81273;SDS011;70753;47.908;11.274;2023-09-07T09:41:13;7.35;;;4.38;;
81273;SDS011;70753;47.908;11.274;2023-09-07T09:43:40;6.57;;;4.65;;
81273;SDS011;70753;47.908;11.274;2023-09-07T09:46:06;5.82;;;4.07;;
81273;SDS011;70753;47.908;11.274;2023-09-07T09:48:34;7.93;;;4.10;;
81273;SDS011;70753;47.908;11.274;2023-09-07T09:51:01;6.40;;;4.15;;
81273;SDS011;70753;47.908;11.274;2023-09-07T09:53:30;6.47;;;4.10;;
81273;SDS011;70753;47.908;11.274;2023-09-07T09:55:56;7.80;;;5.00;;
81273;SDS011;70753;47.908;11.274;2023-09-07T09:58:23;8.50;;;4.25;;
81273;SDS011;70753;47.908;11.274;2023-09-07T10:00:49;7.07;;;4.40;;
81273;SDS011;70753;47.908;11.274;2023-09-07T10:03:20;7.07;;;4.13;;
81273;SDS011;70753;47.908;11.274;2023-09-07T10:05:50;6.13;;;3.70;;
81273;SDS011;70753;47.908;11.274;2023-09-07T10:08:17;7.28;;;4.20;;
81273;SDS011;70753;47.908;11.274;2023-09-07T10:10:46;6.35;;;3.95;;
81273;SDS011;70753;47.908;11.274;2023-09-07T10:13:13;7.18;;;3.90;;
81273;SDS011;70753;47.908;11.274;2023-09-07T10:15:38;6.55;;;3.78;;
81273;SDS011;70753;47.908;11.274;2023-09-07T10:18:08;6.65;;;4.25;;
81273;SDS011;70753;47.908;11.274;2023-09-07T10:20:46;5.68;;;3.92;;
81273;SDS011;70753;47.908;11.274;2023-09-07T10:23:13;6.13;;;3.90;;
81273;SDS011;70753;47.908;11.274;2023-09-07T10:25:40;6.75;;;4.40;;
81273;SDS011;70753;47.908;11.274;2023-09-07T10:28:10;5.95;;;3.80;;
81273;SDS011;70753;47.908;11.274;2023-09-07T10:30:43;5.60;;;3.60;;
81273;SDS011;70753;47.908;11.274;2023-09-07T10:33:18;5.90;;;3.65;;
81273;SDS011;70753;47.908;11.274;2023-09-07T10:35:44;6.55;;;3.78;;
81273;SDS011;70753;47.908;11.274;2023-09-07T10:38:12;6.07;;;4.05;;
81273;SDS011;70753;47.908;11.274;2023-09-07T10:40:38;11.73;;;4.57;;
81273;SDS011;70753;47.908;11.274;2023-09-07T10:43:06;6.45;;;4.40;;
81273;SDS011;70753;47.908;11.274;2023-09-07T10:45:31;6.00;;;3.95;;
81273;SDS011;70753;47.908;11.274;2023-09-07T10:47:57;7.90;;;4.75;;
81273;SDS011;70753;47.908;11.274;2023-09-07T10:50:23;7.97;;;3.80;;
81273;SDS011;70753;47.908;11.274;2023-09-07T10:52:49;6.85;;;4.40;;
81273;SDS011;70753;47.908;11.274;2023-09-07T10:55:14;6.85;;;4.53;;
81273;SDS011;70753;47.908;11.274;2023-09-07T10:57:43;5.50;;;3.80;;
81273;SDS011;70753;47.908;11.274;2023-09-07T11:00:12;7.63;;;4.72;;
81273;SDS011;70753;47.908;11.274;2023-09-07T11:02:38;6.45;;;4.35;;
81273;SDS011;70753;47.908;11.274;2023-09-07T11:05:06;5.93;;;4.22;;
81273;SDS011;70753;47.908;11.274;2023-09-07T11:07:32;6.90;;;4.22;;
81273;SDS011;70753;47.908;11.274;2023-09-07T11:09:58;6.38;;;4.30;;
81273;SDS011;70753;47.908;11.274;2023-09-07T11:12:23;8.38;;;4.20;;
81273;SDS011;70753;47.908;11.274;2023-09-07T11:14:49;7.93;;;4.32;;
81273;SDS011;70753;47.908;11.274;2023-09-07T11:17:16;7.05;;;4.20;;
81273;SDS011;70753;47.908;11.274;2023-09-07T11:19:42;6.80;;;4.40;;
81273;SDS011;70753;47.908;11.274;2023-09-07T11:22:09;6.75;;;4.47;;
81273;SDS011;70753;47.908;11.274;2023-09-07T11:24:35;6.47;;;4.70;;
81273;SDS011;70753;47.908;11.274;2023-09-07T11:27:00;6.85;;;4.60;;
81273;SDS011;70753;47.908;11.274;2023-09-07T11:29:26;6.47;;;4.68;;
81273;SDS011;70753;47.908;11.274;2023-09-07T11:31:51;7.68;;;4.45;;
81273;SDS011;70753;47.908;11.274;2023-09-07T11:34:18;8.63;;;4.75;;
81273;SDS011;70753;47.908;11.274;2023-09-07T11:36:44;8.02;;;4.40;;
81273;SDS011;70753;47.908;11.274;2023-09-07T11:39:10;6.93;;;4.75;;
81273;SDS011;70753;47.908;11.274;2023-09-07T11:41:35;6.88;;;4.40;;
81273;SDS011;70753;47.908;11.274;2023-09-07T11:44:01;6.78;;;4.50;;
81273;SDS011;70753;47.908;11.274;2023-09-07T11:46:27;6.65;;;4.35;;
81273;SDS011;70753;47.908;11.274;2023-09-07T11:48:54;7.55;;;4.35;;
81273;SDS011;70753;47.908;11.274;2023-09-07T11:51:21;7.95;;;4.50;;
81273;SDS011;70753;47.908;11.274;2023-09-07T11:53:47;6.25;;;4.10;;
81273;SDS011;70753;47.908;11.274;2023-09-07T11:56:12;8.05;;;4.50;;
81273;SDS011;70753;47.908;11.274;2023-09-07T11:58:38;11.73;;;4.88;;
81273;SDS011;70753;47.908;11.274;2023-09-07T12:01:03;6.05;;;4.13;;
81273;SDS011;70753;47.908;11.274;2023-09-07T12:03:29;5.80;;;3.90;;
81273;SDS011;70753;47.908;11.274;2023-09-07T12:05:54;7.68;;;4.07;;
81273;SDS011;70753;47.908;11.274;2023-09-07T12:08:21;8.68;;;4.40;;
81273;SDS011;70753;47.908;11.274;2023-09-07T12:10:47;8.73;;;4.32;;
81273;SDS011;70753;47.908;11.274;2023-09-07T12:13:12;7.38;;;4.78;;
81273;SDS011;70753;47.908;11.274;2023-09-07T12:15:39;7.90;;;4.47;;
81273;SDS011;70753;47.908;11.274;2023-09-07T12:18:04;5.97;;;4.20;;
81273;SDS011;70753;47.908;11.274;2023-09-07T12:20:29;7.55;;;4.03;;
81273;SDS011;70753;47.908;11.274;2023-09-07T12:22:55;6.53;;;4.28;;
81273;SDS011;70753;47.908;11.274;2023-09-07T12:25:21;9.38;;;4.18;;
81273;SDS011;70753;47.908;11.274;2023-09-07T12:27:47;8.18;;;3.92;;
81273;SDS011;70753;47.908;11.274;2023-09-07T12:30:12;7.72;;;4.30;;
81273;SDS011;70753;47.908;11.274;2023-09-07T12:32:39;7.95;;;4.60;;
81273;SDS011;70753;47.908;11.274;2023-09-07T12:35:05;8.20;;;4.68;;
81273;SDS011;70753;47.908;11.274;2023-09-07T12:37:31;6.68;;;4.38;;
81273;SDS011;70753;47.908;11.274;2023-09-07T12:39:56;8.25;;;4.18;;
81273;SDS011;70753;47.908;11.274;2023-09-07T12:42:23;6.88;;;4.30;;
81273;SDS011;70753;47.908;11.274;2023-09-07T12:44:49;7.47;;;4.05;;
81273;SDS011;70753;47.908;11.274;2023-09-07T12:47:14;8.45;;;3.95;;
81273;SDS011;70753;47.908;11.274;2023-09-07T12:49:40;8.13;;;4.20;;
81273;SDS011;70753;47.908;11.274;2023-09-07T12:52:07;6.90;;;4.10;;
81273;SDS011;70753;47.908;11.274;2023-09-07T12:54:32;8.90;;;3.92;;
81273;SDS011;70753;47.908;11.274;2023-09-07T12:56:57;7.35;;;4.35;;
81273;SDS011;70753;47.908;11.274;2023-09-07T12:59:24;5.60;;;4.00;;
81273;SDS011;70753;47.908;11.274;2023-09-07T13:01:50;7.80;;;4.47;;
81273;SDS011;70753;47.908;11.274;2023-09-07T13:04:15;6.05;;;4.05;;
81273;SDS011;70753;47.908;11.274;2023-09-07T13:06:41;9.52;;;4.43;;
81273;SDS011;70753;47.908;11.274;2023-09-07T13:09:06;6.55;;;3.90;;
81273;SDS011;70753;47.908;11.274;2023-09-07T13:11:31;6.40;;;4.25;;
81273;SDS011;70753;47.908;11.274;2023-09-07T13:13:57;7.57;;;3.92;;
81273;SDS011;70753;47.908;11.274;2023-09-07T13:16:24;7.15;;;4.15;;
81273;SDS011;70753;47.908;11.274;2023-09-07T13:18:49;7.78;;;3.80;;
81273;SDS011;70753;47.908;11.274;2023-09-07T13:21:14;9.73;;;3.95;;
81273;SDS011;70753;47.908;11.274;2023-09-07T13:23:40;8.40;;;4.00;;
81273;SDS011;70753;47.908;11.274;2023-09-07T13:26:06;5.72;;;4.00;;
81273;SDS011;70753;47.908;11.274;2023-09-07T13:28:34;7.60;;;4.15;;
81273;SDS011;70753;47.908;11.274;2023-09-07T13:31:00;6.25;;;4.05;;
81273;SDS011;70753;47.908;11.274;2023-09-07T13:33:27;5.40;;;3.70;;
81273;SDS011;70753;47.908;11.274;2023-09-07T13:35:53;6.85;;;3.92;;
81273;SDS011;70753;47.908;11.274;2023-09-07T13:38:19;8.70;;;4.00;;
81273;SDS011;70753;47.908;11.274;2023-09-07T13:40:44;6.57;;;3.40;;
81273;SDS011;70753;47.908;11.274;2023-09-07T13:43:11;5.75;;;3.40;;
81273;SDS011;70753;47.908;11.274;2023-09-07T13:45:37;6.28;;;3.80;;
81273;SDS011;70753;47.908;11.274;2023-09-07T13:48:02;5.25;;;3.53;;
81273;SDS011;70753;47.908;11.274;2023-09-07T13:50:29;5.95;;;3.55;;
81273;SDS011;70753;47.908;11.274;2023-09-07T13:52:56;6.43;;;3.88;;
81273;SDS011;70753;47.908;11.274;2023-09-07T13:55:21;5.65;;;3.72;;
81273;SDS011;70753;47.908;11.274;2023-09-07T13:57:48;8.63;;;4.40;;
81273;SDS011;70753;47.908;11.274;2023-09-07T14:00:13;7.50;;;3.90;;
81273;SDS011;70753;47.908;11.274;2023-09-07T14:02:40;6.97;;;3.83;;
81273;SDS011;70753;47.908;11.274;2023-09-07T14:05:09;7.60;;;4.18;;
81273;SDS011;70753;47.908;11.274;2023-09-07T14:07:37;6.32;;;3.70;;
81273;SDS011;70753;47.908;11.274;2023-09-07T14:10:03;7.10;;;4.15;;
81273;SDS011;70753;47.908;11.274;2023-09-07T14:12:30;5.82;;;3.50;;
81273;SDS011;70753;47.908;11.274;2023-09-07T14:14:55;6.30;;;3.78;;
81273;SDS011;70753;47.908;11.274;2023-09-07T14:17:21;6.55;;;3.90;;
81273;SDS011;70753;47.908;11.274;2023-09-07T14:19:46;8.38;;;3.70;;
81273;SDS011;70753;47.908;11.274;2023-09-07T14:22:12;5.22;;;3.75;;
81273;SDS011;70753;47.908;11.274;2023-09-07T14:24:39;6.88;;;3.80;;
81273;SDS011;70753;47.908;11.274;2023-09-07T14:27:04;7.70;;;4.03;;
81273;SDS011;70753;47.908;11.274;2023-09-07T14:29:30;6.70;;;3.83;;